Time;durP1;ratioP1;P1;durP2;ratioP2;P2;SDS_P1;SDS_P2;PMS_P1;PMS_P2;Temp;Humidity;BMP_temperature;BMP_pressure;BME280_temperature;BME280_humidity;BME280_pressure;Samples;Min_cycle;Max_cycle;Signal;HPM_P1;HPM_P2
2022/08/30 00:01:04;;;;;;;;;1.00;1.00;30.30;99.90;;;;;;4978244;28;8888;-68
2022/08/30 00:03:46;;;;;;;;;1.00;1.00;30.40;99.90;;;;;;4992520;28;8892;-70
2022/08/30 00:06:19;;;;;;;;;1.00;1.00;30.50;99.90;;;;;;4986199;28;8877;-69
2022/08/30 00:08:54;;;;;;;;;0.20;0.20;30.30;99.90;;;;;;4972387;28;8841;-69
2022/08/30 00:11:27;;;;;;;;;1.00;1.00;30.20;99.90;;;;;;4976679;28;8888;-69
2022/08/30 00:14:01;;;;;;;;;0.00;0.00;30.20;99.90;;;;;;4978252;28;9574;-69
2022/08/30 00:16:31;;;;;;;;;0.00;0.00;30.10;99.90;;;;;;4996376;28;8854;-68
2022/08/30 00:19:05;;;;;;;;;0.00;0.00;30.10;99.90;;;;;;4977164;28;8870;-68
2022/08/30 00:21:38;;;;;;;;;2.00;1.00;30.00;99.90;;;;;;4980689;28;8998;-68
2022/08/30 00:24:10;;;;;;;;;0.00;0.00;30.00;99.90;;;;;;4976014;28;8913;-68
2022/08/30 00:26:39;;;;;;;;;0.80;0.80;29.90;99.90;;;;;;4977847;28;8889;-68
2022/08/30 00:29:12;;;;;;;;;0.00;0.00;29.80;99.90;;;;;;4975154;28;8893;-69
2022/08/30 00:31:44;;;;;;;;;3.00;1.00;29.60;99.90;;;;;;4976696;28;8870;-69
2022/08/30 00:34:19;;;;;;;;;1.00;1.00;29.60;99.90;;;;;;4975903;28;8889;-69
2022/08/30 00:36:51;;;;;;;;;1.00;1.00;29.60;99.90;;;;;;4991270;28;8845;-69
2022/08/30 00:39:22;;;;;;;;;1.00;1.00;29.50;99.90;;;;;;4964056;28;9594;-68
2022/08/30 00:41:54;;;;;;;;;1.00;1.00;29.40;99.90;;;;;;4977895;28;8913;-71
2022/08/30 00:44:24;;;;;;;;;3.00;1.00;29.30;99.90;;;;;;4976997;28;8867;-69
2022/08/30 00:46:56;;;;;;;;;0.60;0.60;29.30;99.90;;;;;;4983597;28;8896;-69
2022/08/30 00:49:30;;;;;;;;;1.80;0.60;29.20;99.90;;;;;;4968581;28;8876;-74
2022/08/30 00:52:07;;;;;;;;;0.00;0.00;29.10;99.90;;;;;;4980245;28;8878;-69
2022/08/30 00:54:39;;;;;;;;;2.20;1.00;29.10;99.90;;;;;;4978012;28;8886;-69
2022/08/30 00:57:12;;;;;;;;;1.00;1.00;29.00;99.90;;;;;;4993982;28;8846;-69
2022/08/30 00:59:49;;;;;;;;;2.20;1.00;29.00;99.90;;;;;;4983754;28;8893;-69
2022/08/30 01:02:22;;;;;;;;;0.00;0.00;29.00;99.90;;;;;;4979528;28;8872;-68
2022/08/30 01:04:54;;;;;;;;;2.00;1.00;29.00;99.90;;;;;;4981032;28;8859;-68
2022/08/30 01:07:24;;;;;;;;;2.00;0.40;28.90;99.90;;;;;;4963883;28;8882;-69
2022/08/30 01:09:57;;;;;;;;;1.60;1.00;28.90;99.90;;;;;;4979687;28;8843;-69
2022/08/30 01:12:29;;;;;;;;;1.00;1.00;28.90;99.90;;;;;;4975786;28;8882;-69
2022/08/30 01:15:07;;;;;;;;;1.00;1.00;28.80;99.90;;;;;;4975661;28;8879;-69
2022/08/30 01:17:48;;;;;;;;;0.60;0.60;28.80;99.90;;;;;;4977227;28;8878;-67
2022/08/30 01:21:01;;;;;;;;;0.00;0.00;28.70;99.90;;;;;;5009150;28;8865;-68
2022/08/30 01:23:33;;;;;;;;;0.80;0.80;28.70;99.90;;;;;;4978943;28;8885;-69
2022/08/30 01:26:07;;;;;;;;;2.00;0.00;28.60;99.90;;;;;;4978189;28;8870;-69
2022/08/30 01:28:40;;;;;;;;;0.00;0.00;28.60;99.90;;;;;;5011798;28;8874;-69
2022/08/30 01:31:10;;;;;;;;;0.00;0.00;28.60;99.90;;;;;;5009336;28;8846;-69
2022/08/30 01:33:41;;;;;;;;;0.00;0.00;28.50;99.90;;;;;;4972770;28;9664;-69
2022/08/30 01:36:21;;;;;;;;;0.40;0.40;28.60;99.90;;;;;;4976198;28;8882;-70
2022/08/30 01:38:54;;;;;;;;;0.00;0.00;28.60;99.90;;;;;;4995631;28;8863;-69
2022/08/30 01:41:35;;;;;;;;;1.00;1.00;28.50;99.90;;;;;;4983193;28;8851;-69
2022/08/30 01:44:12;;;;;;;;;1.00;1.00;28.50;99.90;;;;;;4994777;28;9001;-70
2022/08/30 01:46:47;;;;;;;;;0.00;0.00;28.40;99.90;;;;;;4978980;28;8901;-70
2022/08/30 01:49:19;;;;;;;;;1.00;1.00;28.40;99.90;;;;;;4978579;28;8858;-68
2022/08/30 01:51:57;;;;;;;;;0.60;0.40;28.40;99.90;;;;;;4981250;28;8870;-68
2022/08/30 01:54:32;;;;;;;;;1.00;1.00;28.40;99.90;;;;;;4991334;28;8863;-69
2022/08/30 01:57:14;;;;;;;;;1.00;1.00;28.40;99.90;;;;;;4975809;28;8865;-70
2022/08/30 01:59:49;;;;;;;;;0.60;0.60;28.30;99.90;;;;;;4971180;28;8865;-69
2022/08/30 02:02:29;;;;;;;;;0.40;0.40;28.30;99.90;;;;;;4976702;28;8854;-69
2022/08/30 02:04:59;;;;;;;;;0.00;0.00;28.30;99.90;;;;;;4981579;28;8885;-68
2022/08/30 02:07:31;;;;;;;;;1.60;1.60;28.20;99.90;;;;;;4977031;28;8901;-68
2022/08/30 02:10:04;;;;;;;;;1.80;1.80;28.20;99.90;;;;;;4977923;28;8989;-68
2022/08/30 02:12:35;;;;;;;;;2.00;2.00;28.20;99.90;;;;;;4982763;28;8864;-68
2022/08/30 02:15:06;;;;;;;;;2.00;2.00;28.20;99.90;;;;;;4980581;28;8862;-69
2022/08/30 02:17:36;;;;;;;;;1.00;1.00;28.10;99.90;;;;;;4978521;28;10209;-69
2022/08/30 02:20:10;;;;;;;;;2.00;2.00;28.20;99.90;;;;;;4982739;28;8865;-68
2022/08/30 02:22:40;;;;;;;;;1.00;1.00;28.10;99.90;;;;;;4977775;28;9660;-68
2022/08/30 02:25:18;;;;;;;;;1.00;1.00;28.10;99.90;;;;;;4974940;28;8850;-69
2022/08/30 02:27:49;;;;;;;;;1.00;1.00;28.10;99.90;;;;;;4979481;28;8871;-68
2022/08/30 02:30:20;;;;;;;;;1.20;1.20;28.10;99.90;;;;;;4988604;28;8830;-69
2022/08/30 02:32:51;;;;;;;;;2.40;2.40;28.00;99.90;;;;;;4981814;28;8839;-70
2022/08/30 02:35:23;;;;;;;;;2.00;2.00;28.00;99.90;;;;;;4982368;28;8889;-70
2022/08/30 02:37:54;;;;;;;;;1.80;1.80;28.00;99.90;;;;;;4984423;28;9001;-68
2022/08/30 02:40:27;;;;;;;;;2.00;2.00;28.00;99.90;;;;;;4985201;28;8873;-69
2022/08/30 02:42:58;;;;;;;;;3.00;3.00;27.90;99.90;;;;;;4977474;28;9033;-68
2022/08/30 02:45:32;;;;;;;;;3.20;3.20;27.90;99.90;;;;;;4983706;28;8865;-69
2022/08/30 02:48:05;;;;;;;;;4.00;4.00;27.90;99.90;;;;;;4983675;28;8914;-70
2022/08/30 02:50:43;;;;;;;;;3.60;3.60;27.90;99.90;;;;;;4982698;28;8874;-70
2022/08/30 02:53:17;;;;;;;;;4.00;4.00;27.90;99.90;;;;;;4981453;28;9012;-69
2022/08/30 02:55:48;;;;;;;;;5.00;5.00;27.80;99.90;;;;;;4981426;28;8880;-70
2022/08/30 02:58:22;;;;;;;;;3.80;3.80;27.80;99.90;;;;;;4982738;28;8842;-69
2022/08/30 03:00:58;;;;;;;;;3.80;3.80;27.80;99.90;;;;;;4981501;28;8863;-68
2022/08/30 03:03:32;;;;;;;;;3.80;3.80;27.80;99.90;;;;;;4980712;28;8875;-69
2022/08/30 03:06:09;;;;;;;;;4.00;4.00;27.80;99.90;;;;;;4982869;28;8850;-70
2022/08/30 03:08:42;;;;;;;;;3.20;3.20;27.80;99.90;;;;;;5009282;28;8870;-70
2022/08/30 03:11:14;;;;;;;;;3.20;3.20;27.70;99.90;;;;;;4998907;28;8866;-68
2022/08/30 03:13:48;;;;;;;;;3.60;3.60;27.60;99.90;;;;;;4995548;28;8867;-69
2022/08/30 03:16:18;;;;;;;;;4.00;4.00;27.60;99.90;;;;;;4984227;28;8858;-68
2022/08/30 03:18:49;;;;;;;;;4.60;4.60;27.60;99.90;;;;;;4982639;28;8862;-69
2022/08/30 03:21:23;;;;;;;;;3.00;3.00;27.60;99.90;;;;;;4982485;28;8882;-68
2022/08/30 03:23:54;;;;;;;;;4.00;4.00;27.50;99.90;;;;;;4979506;28;8854;-68
2022/08/30 03:26:26;;;;;;;;;3.20;3.20;27.50;99.90;;;;;;4983091;28;8854;-69
2022/08/30 03:29:00;;;;;;;;;2.20;2.20;27.50;99.90;;;;;;4981159;28;8925;-68
2022/08/30 03:31:31;;;;;;;;;2.80;2.80;27.50;99.90;;;;;;4982923;28;8850;-67
2022/08/30 03:34:22;;;;;;;;;2.00;2.00;27.30;99.90;;;;;;4977284;28;8851;-70
2022/08/30 03:36:55;;;;;;;;;2.00;2.00;27.40;99.90;;;;;;4981340;28;9001;-69
2022/08/30 03:39:26;;;;;;;;;3.00;3.00;27.40;99.90;;;;;;4997627;28;8851;-68
2022/08/30 03:42:00;;;;;;;;;4.00;4.00;27.30;99.90;;;;;;4983953;28;9669;-67
2022/08/30 03:44:32;;;;;;;;;4.00;4.00;27.30;99.90;;;;;;4985344;28;8823;-68
2022/08/30 03:47:06;;;;;;;;;4.20;4.20;27.20;99.90;;;;;;4982446;28;8870;-68
2022/08/30 03:49:38;;;;;;;;;3.00;3.00;27.20;99.90;;;;;;4982538;28;8858;-69
2022/08/30 03:52:08;;;;;;;;;3.60;3.60;27.20;99.90;;;;;;4983365;28;8882;-68
2022/08/30 03:54:41;;;;;;;;;4.80;4.80;27.20;99.90;;;;;;4977969;28;8863;-68
2022/08/30 03:57:11;;;;;;;;;3.40;3.40;27.20;99.90;;;;;;4966351;28;8835;-70
2022/08/30 03:59:53;;;;;;;;;4.60;4.60;27.10;99.90;;;;;;4981926;28;8850;-69
2022/08/30 04:02:23;;;;;;;;;5.00;5.00;27.10;99.90;;;;;;4985924;28;8858;-69
2022/08/30 04:04:58;;;;;;;;;5.60;5.60;27.10;99.90;;;;;;4983453;28;8886;-70
2022/08/30 04:07:32;;;;;;;;;5.40;5.40;27.10;99.90;;;;;;4963840;28;9372;-70
2022/08/30 04:10:08;;;;;;;;;4.20;4.20;27.10;99.90;;;;;;4978612;28;8853;-68
2022/08/30 04:12:37;;;;;;;;;4.60;4.60;27.10;99.90;;;;;;4997748;28;8889;-68
2022/08/30 04:15:10;;;;;;;;;5.00;5.00;27.00;99.90;;;;;;4983903;28;8880;-67
2022/08/30 04:17:44;;;;;;;;;5.20;5.20;27.00;99.90;;;;;;4978418;28;8914;-67
2022/08/30 04:20:17;;;;;;;;;5.20;5.20;26.90;99.90;;;;;;4985445;28;8877;-68
2022/08/30 04:22:50;;;;;;;;;5.80;5.80;27.00;99.90;;;;;;4978081;28;8886;-71
2022/08/30 04:25:21;;;;;;;;;5.60;5.60;27.00;99.90;;;;;;4984170;28;8875;-68
2022/08/30 04:27:54;;;;;;;;;4.00;4.00;27.00;99.90;;;;;;4984046;28;8866;-68
2022/08/30 04:30:29;;;;;;;;;5.60;5.60;27.00;99.90;;;;;;4979167;28;8881;-67
2022/08/30 04:33:03;;;;;;;;;5.40;5.40;26.80;99.90;;;;;;4981873;28;8880;-69
2022/08/30 04:35:34;;;;;;;;;6.20;6.20;26.80;99.90;;;;;;4998544;28;8834;-68
2022/08/30 04:38:06;;;;;;;;;5.00;5.00;26.80;99.90;;;;;;4980666;28;8881;-68
2022/08/30 04:40:41;;;;;;;;;6.00;6.00;26.90;99.90;;;;;;4973992;28;8882;-68
2022/08/30 04:43:12;;;;;;;;;5.20;5.20;26.90;99.90;;;;;;4976674;28;8867;-71
2022/08/30 04:45:44;;;;;;;;;6.00;6.00;26.80;99.90;;;;;;4978888;28;8862;-69
2022/08/30 04:48:16;;;;;;;;;4.20;4.20;26.80;99.90;;;;;;4979541;28;8875;-69
2022/08/30 04:50:49;;;;;;;;;6.60;6.40;26.80;99.90;;;;;;4978361;28;8896;-69
2022/08/30 04:53:20;;;;;;;;;5.20;5.20;26.70;99.90;;;;;;4974739;28;8854;-69
2022/08/30 04:55:51;;;;;;;;;5.40;5.40;26.70;99.90;;;;;;4981809;28;8879;-68
2022/08/30 04:58:23;;;;;;;;;6.40;6.40;26.70;99.90;;;;;;4979549;28;8877;-69
2022/08/30 05:00:54;;;;;;;;;4.40;4.40;26.70;99.90;;;;;;4975611;28;9589;-70
2022/08/30 05:03:26;;;;;;;;;8.00;8.00;26.70;99.90;;;;;;4976309;28;8904;-68
2022/08/30 05:06:00;;;;;;;;;6.00;6.00;26.60;99.90;;;;;;4978990;28;8846;-68
2022/08/30 05:08:32;;;;;;;;;4.80;4.80;26.70;99.90;;;;;;4982434;28;8847;-70
2022/08/30 05:11:08;;;;;;;;;7.60;7.60;26.70;99.90;;;;;;4980986;28;8849;-69
2022/08/30 05:13:39;;;;;;;;;5.00;5.00;26.60;99.90;;;;;;4993407;28;8885;-72
2022/08/30 05:16:16;;;;;;;;;4.00;4.00;26.60;99.90;;;;;;4960268;28;8891;-70
2022/08/30 05:18:48;;;;;;;;;5.00;5.00;26.60;99.90;;;;;;4979520;28;8854;-70
2022/08/30 05:21:21;;;;;;;;;6.60;6.60;26.60;99.90;;;;;;4989213;28;8842;-69
2022/08/30 05:24:00;;;;;;;;;4.80;4.80;26.60;99.90;;;;;;4976328;28;8863;-70
2022/08/30 05:26:33;;;;;;;;;5.40;5.40;26.60;99.90;;;;;;4981552;28;8855;-71
2022/08/30 05:29:04;;;;;;;;;5.00;5.00;26.60;99.90;;;;;;4975871;28;9004;-69
2022/08/30 05:31:36;;;;;;;;;7.40;6.40;26.60;99.90;;;;;;4974032;28;8859;-69
2022/08/30 05:34:10;;;;;;;;;6.80;6.00;26.50;99.90;;;;;;4980056;28;8850;-68
2022/08/30 05:36:40;;;;;;;;;5.60;5.60;26.50;99.90;;;;;;4980934;28;8870;-69
2022/08/30 05:39:11;;;;;;;;;6.00;6.00;26.50;99.90;;;;;;4976048;28;8846;-70
2022/08/30 05:41:45;;;;;;;;;3.00;3.00;26.50;99.90;;;;;;4992571;28;8873;-69
2022/08/30 05:44:19;;;;;;;;;6.75;6.75;26.50;99.90;;;;;;4982335;28;8887;-68
2022/08/30 05:46:54;;;;;;;;;5.00;5.00;26.50;99.90;;;;;;4979457;28;8838;-68
2022/08/30 05:49:24;;;;;;;;;5.60;5.60;26.50;99.90;;;;;;4975442;28;8870;-69
2022/08/30 05:51:56;;;;;;;;;5.00;5.00;26.50;99.90;;;;;;4976687;28;8886;-70
2022/08/30 05:54:28;;;;;;;;;4.50;4.50;26.50;99.90;;;;;;4976352;28;8861;-69
2022/08/30 05:56:58;;;;;;;;;5.80;5.80;26.50;99.90;;;;;;4978966;28;8865;-68
2022/08/30 05:59:32;;;;;;;;;5.50;5.50;26.50;99.90;;;;;;4981243;28;8846;-70
2022/08/30 06:02:06;;;;;;;;;5.00;5.00;26.50;99.90;;;;;;4976703;28;8874;-70
2022/08/30 06:04:38;;;;;;;;;6.00;5.75;26.50;99.90;;;;;;4978803;28;8865;-68
2022/08/30 06:07:10;;;;;;;;;5.50;5.50;26.60;99.90;;;;;;4981054;28;8893;-70
2022/08/30 06:09:47;;;;;;;;;4.75;4.75;26.50;99.90;;;;;;4980308;28;8881;-70
2022/08/30 06:12:22;;;;;;;;;5.75;5.75;26.50;99.90;;;;;;4973967;28;8897;-70
2022/08/30 06:14:54;;;;;;;;;4.25;4.25;26.50;99.90;;;;;;4978305;28;8870;-70
2022/08/30 06:17:26;;;;;;;;;5.00;5.00;26.50;99.90;;;;;;4980590;28;8869;-69
2022/08/30 06:19:58;;;;;;;;;5.00;5.00;26.50;99.90;;;;;;4979134;28;8862;-68
2022/08/30 06:22:34;;;;;;;;;5.50;5.00;26.50;99.90;;;;;;4976314;28;8889;-68
2022/08/30 06:25:07;;;;;;;;;2.50;2.50;26.40;99.90;;;;;;4976457;28;9638;-69
2022/08/30 06:27:38;;;;;;;;;6.25;6.25;26.40;99.90;;;;;;4981509;28;9616;-69
2022/08/30 06:30:09;;;;;;;;;7.00;7.00;26.40;99.90;;;;;;4979267;28;8867;-70
2022/08/30 06:32:41;;;;;;;;;7.00;5.50;26.40;99.90;;;;;;4980166;28;8914;-70
2022/08/30 06:35:15;;;;;;;;;7.25;7.25;26.40;99.90;;;;;;4976290;28;8890;-71
2022/08/30 06:37:49;;;;;;;;;7.00;6.25;26.40;99.90;;;;;;4991097;28;8864;-69
2022/08/30 06:40:20;;;;;;;;;5.00;5.00;26.40;99.90;;;;;;4976194;28;9076;-69
2022/08/30 06:42:53;;;;;;;;;6.50;6.50;26.40;99.90;;;;;;4976412;28;8878;-70
2022/08/30 06:45:26;;;;;;;;;6.50;6.50;26.40;99.90;;;;;;4979525;28;8863;-70
2022/08/30 06:47:59;;;;;;;;;7.00;7.00;26.40;99.90;;;;;;4976151;28;8867;-70
2022/08/30 06:50:30;;;;;;;;;6.75;6.75;26.40;99.90;;;;;;4962860;28;8847;-69
2022/08/30 06:53:04;;;;;;;;;6.25;6.25;26.40;99.90;;;;;;4995501;28;8854;-68
2022/08/30 06:55:35;;;;;;;;;6.50;6.50;26.40;99.90;;;;;;4975782;28;8845;-68
2022/08/30 06:58:10;;;;;;;;;8.00;8.00;26.40;99.90;;;;;;4978765;28;8901;-68
2022/08/30 07:00:41;;;;;;;;;5.60;5.60;26.40;99.90;;;;;;4980659;28;8910;-69
2022/08/30 07:03:15;;;;;;;;;8.00;8.00;26.40;99.90;;;;;;4975468;28;8841;-68
2022/08/30 07:05:48;;;;;;;;;9.20;7.20;26.40;99.90;;;;;;4978573;28;8847;-68
2022/08/30 07:08:18;;;;;;;;;9.00;9.00;26.40;99.90;;;;;;4978278;28;8879;-68
2022/08/30 07:10:53;;;;;;;;;6.40;6.20;26.40;99.90;;;;;;4976210;28;8843;-69
2022/08/30 07:13:27;;;;;;;;;4.60;4.60;26.40;99.90;;;;;;4970611;28;8831;-69
2022/08/30 07:16:00;;;;;;;;;5.50;5.50;26.40;99.90;;;;;;4988427;28;8851;-69
2022/08/30 07:18:53;;;;;;;;;6.40;6.40;26.40;99.90;;;;;;4993643;28;8889;-68
2022/08/30 07:21:30;;;;;;;;;6.00;6.00;26.40;99.90;;;;;;4961345;28;8835;-69
2022/08/30 07:24:00;;;;;;;;;6.75;6.75;26.40;99.90;;;;;;4965757;28;8839;-70
2022/08/30 07:26:40;;;;;;;;;7.00;7.00;26.40;99.90;;;;;;4979975;28;8861;-70
2022/08/30 07:29:11;;;;;;;;;7.50;7.25;26.40;99.90;;;;;;4980021;28;9543;-70
2022/08/30 07:31:43;;;;;;;;;7.25;7.25;26.40;99.90;;;;;;4977880;28;8845;-70
2022/08/30 07:34:13;;;;;;;;;7.75;7.75;26.40;99.90;;;;;;4978548;28;8861;-69
2022/08/30 07:36:49;;;;;;;;;8.00;8.00;26.40;99.90;;;;;;4980375;28;10036;-69
2022/08/30 07:39:19;;;;;;;;;8.00;8.00;26.40;99.90;;;;;;4975136;28;8855;-68
2022/08/30 07:41:52;;;;;;;;;5.25;5.25;26.40;99.90;;;;;;4975623;28;8854;-69
2022/08/30 07:44:24;;;;;;;;;8.60;8.60;26.40;99.90;;;;;;4992563;28;8905;-70
2022/08/30 07:46:56;;;;;;;;;7.25;7.25;26.40;99.90;;;;;;4980183;28;8859;-69
2022/08/30 07:49:29;;;;;;;;;7.00;7.00;26.40;99.90;;;;;;4982092;28;8871;-71
2022/08/30 07:52:00;;;;;;;;;7.25;7.25;26.40;99.90;;;;;;4980587;28;8882;-70
2022/08/30 07:54:32;;;;;;;;;7.75;7.75;26.40;99.90;;;;;;4981450;28;9017;-70
2022/08/30 07:57:01;;;;;;;;;7.25;7.25;26.40;99.90;;;;;;4974797;28;8882;-70
2022/08/30 07:59:33;;;;;;;;;9.00;9.00;26.40;99.90;;;;;;4978714;28;8866;-71
2022/08/30 08:02:07;;;;;;;;;7.50;7.50;26.40;99.90;;;;;;4985157;28;8891;-69
2022/08/30 08:04:38;;;;;;;;;8.50;8.25;26.30;99.90;;;;;;4975451;28;9605;-69
2022/08/30 08:07:10;;;;;;;;;9.25;9.00;26.30;99.90;;;;;;4973203;28;8874;-69
2022/08/30 08:09:40;;;;;;;;;9.00;9.00;26.20;99.90;;;;;;4972707;28;9612;-69
2022/08/30 08:12:10;;;;;;;;;9.25;9.25;26.20;99.90;;;;;;4978150;28;9776;-69
2022/08/30 08:14:44;;;;;;;;;10.50;9.25;26.30;99.90;;;;;;4984405;28;8914;-70
2022/08/30 08:17:18;;;;;;;;;8.00;8.00;26.30;99.90;;;;;;4981914;28;8843;-70
2022/08/30 08:19:51;;;;;;;;;8.75;8.75;26.30;99.90;;;;;;4979390;28;8877;-69
2022/08/30 08:22:25;;;;;;;;;8.00;8.00;26.30;99.90;;;;;;4978265;28;8838;-69
2022/08/30 08:24:57;;;;;;;;;9.00;7.00;26.20;99.90;;;;;;4946630;28;8924;-70
2022/08/30 08:27:30;;;;;;;;;8.00;8.00;26.30;99.90;;;;;;4995224;28;8881;-69
2022/08/30 08:30:02;;;;;;;;;8.25;8.25;26.20;99.90;;;;;;4994681;28;8884;-69
2022/08/30 08:32:36;;;;;;;;;9.00;9.00;26.20;99.90;;;;;;4976585;28;8851;-69
2022/08/30 08:35:10;;;;;;;;;9.25;9.25;26.20;99.90;;;;;;4980225;28;8879;-69
2022/08/30 08:37:41;;;;;;;;;11.50;10.75;26.20;99.90;;;;;;4977310;28;9989;-69
2022/08/30 08:40:19;;;;;;;;;8.25;8.25;26.20;99.90;;;;;;4979893;28;9674;-69
2022/08/30 08:42:59;;;;;;;;;9.25;9.25;26.20;99.90;;;;;;4991133;28;8896;-70
2022/08/30 08:45:56;;;;;;;;;8.00;8.00;26.30;99.90;;;;;;4975418;28;8854;-70
2022/08/30 08:48:51;;;;;;;;;8.00;8.00;26.30;99.90;;;;;;4979103;28;8851;-69
2022/08/30 08:54:39;;;;;;;;;8.25;8.25;26.20;99.90;;;;;;4978627;28;8842;-70
2022/08/30 08:57:13;;;;;;;;;9.50;8.75;26.20;99.90;;;;;;4981423;28;8854;-69
2022/08/30 08:59:53;;;;;;;;;6.50;6.50;26.30;99.90;;;;;;4978259;28;8863;-69
2022/08/30 09:02:28;;;;;;;;;9.25;9.25;26.20;99.90;;;;;;4981330;28;8871;-70
2022/08/30 09:05:04;;;;;;;;;8.25;8.25;26.20;99.90;;;;;;4977148;28;8878;-69
2022/08/30 09:07:43;;;;;;;;;9.25;9.25;26.20;99.90;;;;;;4940986;28;8877;-70
2022/08/30 09:10:13;;;;;;;;;9.25;9.25;26.20;99.90;;;;;;4980573;28;8858;-69
2022/08/30 09:13:00;;;;;;;;;7.50;7.50;26.20;99.90;;;;;;4980700;28;8835;-69
2022/08/30 09:15:34;;;;;;;;;11.00;11.00;26.20;99.90;;;;;;5009538;28;8871;-68
2022/08/30 09:18:07;;;;;;;;;10.25;10.25;26.20;99.90;;;;;;4977499;28;8857;-70
2022/08/30 09:20:54;;;;;;;;;11.00;11.00;26.20;99.90;;;;;;4977590;28;8848;-69
2022/08/30 09:23:31;;;;;;;;;12.00;12.00;26.10;99.90;;;;;;4974905;28;8858;-69
2022/08/30 09:26:05;;;;;;;;;10.75;10.75;26.10;99.90;;;;;;4978254;28;8906;-69
2022/08/30 09:28:49;;;;;;;;;11.75;11.75;26.10;99.90;;;;;;4980559;28;8839;-69
2022/08/30 09:31:26;;;;;;;;;9.25;9.25;26.10;99.90;;;;;;4990239;28;8851;-69
2022/08/30 09:34:04;;;;;;;;;10.25;10.25;26.10;99.90;;;;;;4983185;28;8887;-70
2022/08/30 09:36:42;;;;;;;;;9.50;9.50;26.10;99.90;;;;;;4961701;28;8843;-70
2022/08/30 09:39:31;;;;;;;;;11.00;11.00;26.00;99.90;;;;;;4980182;28;8954;-70
2022/08/30 09:42:24;;;;;;;;;11.75;11.75;26.10;99.90;;;;;;4974275;28;8877;-69
2022/08/30 09:45:17;;;;;;;;;13.00;13.00;26.10;99.90;;;;;;4989384;28;8849;-69
2022/08/30 09:47:47;;;;;;;;;12.75;12.75;26.10;99.90;;;;;;4980620;28;8851;-70
2022/08/30 09:50:21;;;;;;;;;11.25;11.25;26.10;99.90;;;;;;4978968;28;8913;-70
2022/08/30 09:53:10;;;;;;;;;12.00;12.00;26.00;99.90;;;;;;4977170;28;8886;-68
2022/08/30 09:56:09;;;;;;;;;13.00;13.00;26.00;99.90;;;;;;4976633;28;9586;-68
2022/08/30 09:59:06;;;;;;;;;9.00;9.00;26.10;99.90;;;;;;4974694;28;8893;-69
2022/08/30 10:01:48;;;;;;;;;13.00;13.00;26.10;99.90;;;;;;4977857;28;8862;-68
2022/08/30 10:04:35;;;;;;;;;8.75;8.75;26.00;99.90;;;;;;4990851;28;8885;-68
2022/08/30 10:07:18;;;;;;;;;13.25;13.25;26.00;99.90;;;;;;4974395;28;8909;-69
2022/08/30 10:10:13;;;;;;;;;11.25;10.50;26.00;99.90;;;;;;4990476;28;8882;-70
2022/08/30 10:13:09;;;;;;;;;11.75;11.75;26.00;99.90;;;;;;4975594;28;8857;-70
2022/08/30 10:15:54;;;;;;;;;7.00;6.50;26.00;99.90;;;;;;4977881;28;9056;-69
2022/08/30 10:18:38;;;;;;;;;13.50;13.50;26.00;99.90;;;;;;4976375;28;8943;-69
2022/08/30 10:21:26;;;;;;;;;11.75;11.75;26.00;99.90;;;;;;4994053;28;8889;-69
2022/08/30 10:24:06;;;;;;;;;11.75;11.75;26.00;99.90;;;;;;4975658;28;8973;-69
2022/08/30 10:26:59;;;;;;;;;13.25;11.75;26.00;99.90;;;;;;4989187;28;8838;-69
2022/08/30 10:29:49;;;;;;;;;13.75;13.75;26.00;99.90;;;;;;4979796;28;8843;-69
2022/08/30 10:32:50;;;;;;;;;11.00;11.00;26.00;99.90;;;;;;4963393;28;8909;-69
2022/08/30 10:35:26;;;;;;;;;10.75;10.75;26.00;99.90;;;;;;4971575;28;9032;-69
2022/08/30 10:38:11;;;;;;;;;9.50;9.50;26.00;99.90;;;;;;4990133;28;8872;-70
2022/08/30 10:44:08;;;;;;;;;10.75;10.75;26.00;99.90;;;;;;4980338;28;8861;-69
2022/08/30 10:46:51;;;;;;;;;11.00;10.50;25.90;99.90;;;;;;4977644;28;8885;-68
2022/08/30 10:49:25;;;;;;;;;11.25;11.25;25.90;99.90;;;;;;4997964;28;8877;-70
2022/08/30 10:52:30;;;;;;;;;11.75;11.75;26.00;99.90;;;;;;4975217;28;9045;-71
2022/08/30 10:55:17;;;;;;;;;10.50;10.50;26.00;99.90;;;;;;4979655;28;8874;-69
2022/08/30 10:57:48;;;;;;;;;10.75;10.75;26.00;99.90;;;;;;4976367;28;8975;-69
2022/08/30 11:00:54;;;;;;;;;10.75;10.75;25.90;99.90;;;;;;4983262;28;9020;-70
2022/08/30 11:03:44;;;;;;;;;10.50;10.50;26.00;99.90;;;;;;4978181;28;8869;-70
2022/08/30 11:06:44;;;;;;;;;11.25;11.25;26.00;99.90;;;;;;4981605;28;8878;-69
2022/08/30 11:09:44;;;;;;;;;10.50;10.50;26.00;99.90;;;;;;4995151;28;8899;-71
2022/08/30 11:12:53;;;;;;;;;10.50;10.50;26.00;99.90;;;;;;4981866;28;9035;-71
2022/08/30 11:15:29;;;;;;;;;10.00;10.00;26.00;99.90;;;;;;4981613;28;8830;-70
2022/08/30 11:18:13;;;;;;;;;11.50;11.50;26.00;99.90;;;;;;4984478;28;8846;-69
2022/08/30 11:20:55;;;;;;;;;10.75;10.75;25.90;99.90;;;;;;4982535;28;8874;-70
2022/08/30 11:23:31;;;;;;;;;11.00;11.00;25.90;99.90;;;;;;4983330;28;8877;-69
2022/08/30 11:26:04;;;;;;;;;11.75;11.75;25.90;99.90;;;;;;4977827;28;9621;-70
2022/08/30 11:28:39;;;;;;;;;11.00;11.00;25.90;99.90;;;;;;4998656;28;8873;-69
2022/08/30 11:31:17;;;;;;;;;14.75;13.00;25.90;99.90;;;;;;4982925;28;8857;-68
2022/08/30 11:33:58;;;;;;;;;13.00;13.00;25.90;99.90;;;;;;4982867;28;8860;-72
2022/08/30 11:36:32;;;;;;;;;12.00;12.00;26.00;99.90;;;;;;4984124;28;8905;-71
2022/08/30 11:39:30;;;;;;;;;10.50;10.50;25.90;99.90;;;;;;4980300;28;8893;-69
2022/08/30 11:42:33;;;;;;;;;13.25;13.25;25.90;99.90;;;;;;4984841;28;9946;-69
2022/08/30 11:45:26;;;;;;;;;12.50;12.50;26.00;99.90;;;;;;4981664;28;8842;-69
2022/08/30 11:48:02;;;;;;;;;12.75;12.75;25.90;99.90;;;;;;4978009;28;8828;-70
2022/08/30 11:51:02;;;;;;;;;11.50;11.50;25.90;99.90;;;;;;4977651;28;8842;-70
2022/08/30 11:53:57;;;;;;;;;10.00;10.00;25.90;99.90;;;;;;4992020;28;8874;-71
2022/08/30 11:56:49;;;;;;;;;11.25;11.25;25.90;99.90;;;;;;4983752;28;8861;-67
2022/08/30 11:59:48;;;;;;;;;12.75;11.75;25.90;99.90;;;;;;4979569;28;8985;-68
2022/08/30 12:02:53;;;;;;;;;11.75;11.75;25.90;99.90;;;;;;4997480;28;8854;-72
2022/08/30 12:05:41;;;;;;;;;13.00;13.00;25.90;99.90;;;;;;4983080;28;8877;-69
2022/08/30 12:08:28;;;;;;;;;12.75;12.50;25.90;99.90;;;;;;4992164;28;8858;-68
2022/08/30 12:11:25;;;;;;;;;11.00;11.00;25.90;99.90;;;;;;4993487;28;8877;-67
2022/08/30 12:13:56;;;;;;;;;13.00;13.00;25.80;99.90;;;;;;4979073;28;8855;-68
2022/08/30 12:19:37;;;;;;;;;9.00;9.00;25.90;99.90;;;;;;4986378;28;8846;-68
2022/08/30 12:22:16;;;;;;;;;11.00;11.00;25.90;99.90;;;;;;4980921;28;8838;-67
2022/08/30 12:24:52;;;;;;;;;14.25;14.25;25.90;99.90;;;;;;4979000;28;9676;-68
2022/08/30 12:27:28;;;;;;;;;12.75;12.75;25.80;99.90;;;;;;4976402;28;8874;-68
2022/08/30 12:30:07;;;;;;;;;12.00;12.00;25.90;99.90;;;;;;4979639;28;8862;-68
2022/08/30 12:32:49;;;;;;;;;11.50;11.50;25.90;99.90;;;;;;4995093;28;8881;-70
2022/08/30 12:35:27;;;;;;;;;11.50;10.50;26.00;99.90;;;;;;4996886;28;8839;-69
2022/08/30 12:38:07;;;;;;;;;12.25;10.25;26.00;99.90;;;;;;4979873;28;8928;-70
2022/08/30 12:40:47;;;;;;;;;10.25;10.25;25.90;99.90;;;;;;4976350;28;8867;-69
2022/08/30 12:43:33;;;;;;;;;9.50;9.50;26.00;99.90;;;;;;4986391;28;8908;-67
2022/08/30 12:46:16;;;;;;;;;14.75;14.75;26.00;99.90;;;;;;4978869;28;8858;-68
2022/08/30 12:48:47;;;;;;;;;12.75;12.75;26.00;99.90;;;;;;4992859;28;8855;-68
2022/08/30 12:51:36;;;;;;;;;12.00;12.00;26.00;99.90;;;;;;4978039;28;8874;-67
2022/08/30 12:54:22;;;;;;;;;13.00;13.00;26.10;99.90;;;;;;4979007;28;8826;-68
2022/08/30 12:56:57;;;;;;;;;10.00;10.00;26.10;99.90;;;;;;4982037;28;8839;-67
2022/08/30 12:59:52;;;;;;;;;12.00;12.00;26.10;99.90;;;;;;4980608;28;8861;-69
2022/08/30 13:02:50;;;;;;;;;9.25;9.25;26.10;99.90;;;;;;4999059;28;8843;-69
2022/08/30 13:05:41;;;;;;;;;10.25;9.25;26.10;99.90;;;;;;4981585;28;8861;-66
2022/08/30 13:08:26;;;;;;;;;11.50;11.50;26.10;99.90;;;;;;4976118;28;8881;-68
2022/08/30 13:11:20;;;;;;;;;11.00;11.00;26.20;99.90;;;;;;4982376;28;9055;-68
2022/08/30 13:14:17;;;;;;;;;10.00;10.00;26.20;99.90;;;;;;4985194;28;8854;-67
2022/08/30 13:16:49;;;;;;;;;12.25;12.25;26.20;99.90;;;;;;4998951;28;8861;-67
2022/08/30 13:19:42;;;;;;;;;8.25;8.25;26.20;99.90;;;;;;4985621;28;9556;-68
2022/08/30 13:22:28;;;;;;;;;9.50;9.50;26.20;99.90;;;;;;4983770;28;8950;-68
2022/08/30 13:25:00;;;;;;;;;11.50;11.50;26.20;99.90;;;;;;4976690;28;8839;-68
2022/08/30 13:27:35;;;;;;;;;10.75;10.75;26.30;99.90;;;;;;4976378;28;8902;-69
2022/08/30 13:30:13;;;;;;;;;12.00;12.00;26.30;99.90;;;;;;4982393;28;8850;-68
2022/08/30 13:32:42;;;;;;;;;10.00;10.00;26.30;99.90;;;;;;4996842;28;9930;-68
2022/08/30 13:35:12;;;;;;;;;11.00;10.00;26.40;99.90;;;;;;4993052;28;9927;-67
2022/08/30 13:37:43;;;;;;;;;8.75;8.75;26.40;99.90;;;;;;4976872;28;8850;-68
2022/08/30 13:40:21;;;;;;;;;6.00;6.00;26.40;99.90;;;;;;4979974;28;8878;-69
2022/08/30 13:42:52;;;;;;;;;10.00;10.00;26.40;99.90;;;;;;4979992;28;9378;-69
2022/08/30 13:45:24;;;;;;;;;9.25;9.25;26.40;99.90;;;;;;4975868;28;8901;-67
2022/08/30 13:48:13;;;;;;;;;7.80;7.80;26.40;99.90;;;;;;4977134;28;8866;-67
2022/08/30 13:50:45;;;;;;;;;14.50;13.25;26.50;99.90;;;;;;4976927;28;9414;-69